sensor_id;sensor_type;location;lat;lon;timestamp;P1;durP1;ratioP1;P2;durP2;ratioP2
44832;SDS011;30569;51.252;9.830;2023-05-20T00:02:09;5.57;;;2.88;;
44832;SDS011;30569;51.252;9.830;2023-05-20T00:04:35;5.70;;;3.00;;
44832;SDS011;30569;51.252;9.830;2023-05-20T00:07:00;12.70;;;3.13;;
44832;SDS011;30569;51.252;9.830;2023-05-20T00:09:26;6.75;;;3.05;;
44832;SDS011;30569;51.252;9.830;2023-05-20T00:11:53;5.50;;;2.47;;
44832;SDS011;30569;51.252;9.830;2023-05-20T00:14:19;5.70;;;2.70;;
44832;SDS011;30569;51.252;9.830;2023-05-20T00:16:45;5.63;;;2.67;;
44832;SDS011;30569;51.252;9.830;2023-05-20T00:19:10;6.80;;;2.88;;
44832;SDS011;30569;51.252;9.830;2023-05-20T00:21:36;7.60;;;3.47;;
44832;SDS011;30569;51.252;9.830;2023-05-20T00:24:01;5.78;;;2.70;;
44832;SDS011;30569;51.252;9.830;2023-05-20T00:26:27;5.78;;;2.58;;
44832;SDS011;30569;51.252;9.830;2023-05-20T00:28:53;5.20;;;2.47;;
44832;SDS011;30569;51.252;9.830;2023-05-20T00:31:19;8.75;;;3.72;;
44832;SDS011;30569;51.252;9.830;2023-05-20T00:33:45;7.07;;;2.53;;
44832;SDS011;30569;51.252;9.830;2023-05-20T00:36:11;5.60;;;2.88;;
44832;SDS011;30569;51.252;9.830;2023-05-20T00:38:36;8.20;;;2.80;;
44832;SDS011;30569;51.252;9.830;2023-05-20T00:41:02;5.75;;;2.80;;
44832;SDS011;30569;51.252;9.830;2023-05-20T00:43:27;6.28;;;2.80;;
44832;SDS011;30569;51.252;9.830;2023-05-20T00:45:53;5.70;;;3.15;;
44832;SDS011;30569;51.252;9.830;2023-05-20T00:48:19;7.32;;;3.30;;
44832;SDS011;30569;51.252;9.830;2023-05-20T00:50:46;6.15;;;3.42;;
44832;SDS011;30569;51.252;9.830;2023-05-20T00:53:12;5.45;;;2.67;;
44832;SDS011;30569;51.252;9.830;2023-05-20T00:55:41;8.32;;;2.70;;
44832;SDS011;30569;51.252;9.830;2023-05-20T00:58:06;6.15;;;2.70;;
44832;SDS011;30569;51.252;9.830;2023-05-20T01:00:32;5.43;;;3.40;;
44832;SDS011;30569;51.252;9.830;2023-05-20T01:02:58;6.15;;;3.78;;
44832;SDS011;30569;51.252;9.830;2023-05-20T01:05:24;5.75;;;2.97;;
44832;SDS011;30569;51.252;9.830;2023-05-20T01:07:50;5.03;;;2.53;;
44832;SDS011;30569;51.252;9.830;2023-05-20T01:10:15;7.35;;;3.08;;
44832;SDS011;30569;51.252;9.830;2023-05-20T01:12:42;7.65;;;3.28;;
44832;SDS011;30569;51.252;9.830;2023-05-20T01:15:14;4.90;;;2.92;;
44832;SDS011;30569;51.252;9.830;2023-05-20T01:17:45;5.22;;;2.88;;
44832;SDS011;30569;51.252;9.830;2023-05-20T01:20:11;6.43;;;3.75;;
44832;SDS011;30569;51.252;9.830;2023-05-20T01:22:38;6.05;;;3.13;;
44832;SDS011;30569;51.252;9.830;2023-05-20T01:25:17;6.97;;;3.20;;
44832;SDS011;30569;51.252;9.830;2023-05-20T01:27:42;6.72;;;3.08;;
44832;SDS011;30569;51.252;9.830;2023-05-20T01:30:08;5.57;;;2.80;;
44832;SDS011;30569;51.252;9.830;2023-05-20T01:32:40;6.90;;;3.13;;
44832;SDS011;30569;51.252;9.830;2023-05-20T01:35:07;6.00;;;3.20;;
44832;SDS011;30569;51.252;9.830;2023-05-20T01:37:35;4.90;;;3.03;;
44832;SDS011;30569;51.252;9.830;2023-05-20T01:40:03;6.88;;;3.60;;
44832;SDS011;30569;51.252;9.830;2023-05-20T01:42:31;5.82;;;3.50;;
44832;SDS011;30569;51.252;9.830;2023-05-20T01:44:58;7.10;;;3.17;;
44832;SDS011;30569;51.252;9.830;2023-05-20T01:47:24;5.63;;;3.15;;
44832;SDS011;30569;51.252;9.830;2023-05-20T01:49:49;6.70;;;3.50;;
44832;SDS011;30569;51.252;9.830;2023-05-20T01:52:18;6.05;;;3.60;;
44832;SDS011;30569;51.252;9.830;2023-05-20T01:54:44;5.78;;;3.10;;
44832;SDS011;30569;51.252;9.830;2023-05-20T01:57:15;6.53;;;3.25;;
44832;SDS011;30569;51.252;9.830;2023-05-20T01:59:47;6.85;;;3.22;;
44832;SDS011;30569;51.252;9.830;2023-05-20T02:02:13;8.25;;;3.38;;
44832;SDS011;30569;51.252;9.830;2023-05-20T02:04:39;6.22;;;3.92;;
44832;SDS011;30569;51.252;9.830;2023-05-20T02:07:07;6.60;;;3.92;;
44832;SDS011;30569;51.252;9.830;2023-05-20T02:09:33;7.07;;;3.78;;
44832;SDS011;30569;51.252;9.830;2023-05-20T02:11:58;6.47;;;3.60;;
44832;SDS011;30569;51.252;9.830;2023-05-20T02:14:24;9.77;;;4.00;;
44832;SDS011;30569;51.252;9.830;2023-05-20T02:16:50;8.82;;;4.20;;
44832;SDS011;30569;51.252;9.830;2023-05-20T02:19:15;6.40;;;4.05;;
44832;SDS011;30569;51.252;9.830;2023-05-20T02:21:47;6.13;;;4.00;;
44832;SDS011;30569;51.252;9.830;2023-05-20T02:24:13;8.38;;;4.95;;
44832;SDS011;30569;51.252;9.830;2023-05-20T02:26:40;10.23;;;5.10;;
44832;SDS011;30569;51.252;9.830;2023-05-20T02:29:05;8.35;;;4.47;;
44832;SDS011;30569;51.252;9.830;2023-05-20T02:31:31;6.78;;;4.25;;
44832;SDS011;30569;51.252;9.830;2023-05-20T02:33:57;7.80;;;4.68;;
44832;SDS011;30569;51.252;9.830;2023-05-20T02:36:22;7.55;;;4.60;;
44832;SDS011;30569;51.252;9.830;2023-05-20T02:38:48;6.75;;;4.38;;
44832;SDS011;30569;51.252;9.830;2023-05-20T02:41:13;9.23;;;4.68;;
44832;SDS011;30569;51.252;9.830;2023-05-20T02:43:39;9.60;;;5.13;;
44832;SDS011;30569;51.252;9.830;2023-05-20T02:46:05;8.15;;;4.95;;
44832;SDS011;30569;51.252;9.830;2023-05-20T02:48:30;9.63;;;4.90;;
44832;SDS011;30569;51.252;9.830;2023-05-20T02:50:57;8.63;;;5.13;;
44832;SDS011;30569;51.252;9.830;2023-05-20T02:53:23;9.07;;;4.82;;
44832;SDS011;30569;51.252;9.830;2023-05-20T02:55:49;7.43;;;5.30;;
44832;SDS011;30569;51.252;9.830;2023-05-20T02:58:16;8.45;;;5.13;;
44832;SDS011;30569;51.252;9.830;2023-05-20T03:00:41;12.52;;;5.38;;
44832;SDS011;30569;51.252;9.830;2023-05-20T03:03:07;9.93;;;5.47;;
44832;SDS011;30569;51.252;9.830;2023-05-20T03:05:34;8.93;;;5.63;;
44832;SDS011;30569;51.252;9.830;2023-05-20T03:08:07;9.98;;;5.30;;
44832;SDS011;30569;51.252;9.830;2023-05-20T03:10:34;8.60;;;5.45;;
44832;SDS011;30569;51.252;9.830;2023-05-20T03:13:03;8.50;;;5.53;;
44832;SDS011;30569;51.252;9.830;2023-05-20T03:15:33;9.40;;;5.57;;
44832;SDS011;30569;51.252;9.830;2023-05-20T03:17:59;10.43;;;5.03;;
44832;SDS011;30569;51.252;9.830;2023-05-20T03:20:25;8.75;;;5.85;;
44832;SDS011;30569;51.252;9.830;2023-05-20T03:22:51;9.23;;;5.40;;
44832;SDS011;30569;51.252;9.830;2023-05-20T03:25:16;10.55;;;5.93;;
44832;SDS011;30569;51.252;9.830;2023-05-20T03:27:42;9.40;;;6.05;;
44832;SDS011;30569;51.252;9.830;2023-05-20T03:30:08;7.72;;;5.22;;
44832;SDS011;30569;51.252;9.830;2023-05-20T03:32:34;8.35;;;5.53;;
44832;SDS011;30569;51.252;9.830;2023-05-20T03:35:00;8.63;;;5.60;;
44832;SDS011;30569;51.252;9.830;2023-05-20T03:37:26;9.45;;;6.05;;
44832;SDS011;30569;51.252;9.830;2023-05-20T03:39:51;10.20;;;5.78;;
44832;SDS011;30569;51.252;9.830;2023-05-20T03:42:17;8.65;;;5.65;;
44832;SDS011;30569;51.252;9.830;2023-05-20T03:44:42;9.70;;;6.43;;
44832;SDS011;30569;51.252;9.830;2023-05-20T03:47:08;9.82;;;5.95;;
44832;SDS011;30569;51.252;9.830;2023-05-20T03:49:33;11.13;;;6.03;;
44832;SDS011;30569;51.252;9.830;2023-05-20T03:51:59;8.70;;;5.60;;
44832;SDS011;30569;51.252;9.830;2023-05-20T03:54:25;9.13;;;5.50;;
44832;SDS011;30569;51.252;9.830;2023-05-20T03:56:51;11.90;;;6.63;;
44832;SDS011;30569;51.252;9.830;2023-05-20T03:59:17;10.27;;;6.68;;
44832;SDS011;30569;51.252;9.830;2023-05-20T04:01:43;10.93;;;6.38;;
44832;SDS011;30569;51.252;9.830;2023-05-20T04:04:09;9.50;;;6.40;;
44832;SDS011;30569;51.252;9.830;2023-05-20T04:06:34;10.18;;;5.93;;
44832;SDS011;30569;51.252;9.830;2023-05-20T04:09:00;10.05;;;6.55;;
44832;SDS011;30569;51.252;9.830;2023-05-20T04:11:25;12.05;;;6.65;;
44832;SDS011;30569;51.252;9.830;2023-05-20T04:13:51;11.60;;;6.93;;
44832;SDS011;30569;51.252;9.830;2023-05-20T04:16:16;9.05;;;6.18;;
44832;SDS011;30569;51.252;9.830;2023-05-20T04:18:42;10.43;;;6.60;;
44832;SDS011;30569;51.252;9.830;2023-05-20T04:21:09;10.52;;;6.03;;
44832;SDS011;30569;51.252;9.830;2023-05-20T04:23:35;10.63;;;6.57;;
44832;SDS011;30569;51.252;9.830;2023-05-20T04:26:01;10.68;;;6.20;;
44832;SDS011;30569;51.252;9.830;2023-05-20T04:28:27;9.95;;;6.50;;
44832;SDS011;30569;51.252;9.830;2023-05-20T04:30:58;11.10;;;7.03;;
44832;SDS011;30569;51.252;9.830;2023-05-20T04:33:29;10.18;;;6.88;;
44832;SDS011;30569;51.252;9.830;2023-05-20T04:35:55;11.80;;;6.88;;
44832;SDS011;30569;51.252;9.830;2023-05-20T04:38:22;10.38;;;7.05;;
44832;SDS011;30569;51.252;9.830;2023-05-20T04:40:57;11.18;;;6.63;;
44832;SDS011;30569;51.252;9.830;2023-05-20T04:43:24;11.45;;;7.13;;
44832;SDS011;30569;51.252;9.830;2023-05-20T04:45:50;9.38;;;6.78;;
44832;SDS011;30569;51.252;9.830;2023-05-20T04:48:17;10.38;;;7.13;;
44832;SDS011;30569;51.252;9.830;2023-05-20T04:50:43;11.73;;;7.65;;
44832;SDS011;30569;51.252;9.830;2023-05-20T04:53:10;13.07;;;7.20;;
44832;SDS011;30569;51.252;9.830;2023-05-20T04:55:35;11.35;;;7.25;;
44832;SDS011;30569;51.252;9.830;2023-05-20T04:58:01;11.73;;;7.78;;
44832;SDS011;30569;51.252;9.830;2023-05-20T05:00:27;12.25;;;7.40;;
44832;SDS011;30569;51.252;9.830;2023-05-20T05:02:53;11.27;;;7.60;;
44832;SDS011;30569;51.252;9.830;2023-05-20T05:05:19;10.70;;;7.50;;
44832;SDS011;30569;51.252;9.830;2023-05-20T05:07:45;12.93;;;6.90;;
44832;SDS011;30569;51.252;9.830;2023-05-20T05:10:11;11.57;;;7.75;;
44832;SDS011;30569;51.252;9.830;2023-05-20T05:12:36;11.30;;;7.55;;
44832;SDS011;30569;51.252;9.830;2023-05-20T05:15:02;14.50;;;7.43;;
44832;SDS011;30569;51.252;9.830;2023-05-20T05:17:28;11.85;;;7.53;;
44832;SDS011;30569;51.252;9.830;2023-05-20T05:19:54;13.75;;;7.85;;
44832;SDS011;30569;51.252;9.830;2023-05-20T05:22:19;13.23;;;7.63;;
44832;SDS011;30569;51.252;9.830;2023-05-20T05:24:45;12.85;;;8.35;;
44832;SDS011;30569;51.252;9.830;2023-05-20T05:27:10;12.63;;;8.15;;
44832;SDS011;30569;51.252;9.830;2023-05-20T05:29:36;10.00;;;7.32;;
44832;SDS011;30569;51.252;9.830;2023-05-20T05:32:01;12.52;;;7.60;;
44832;SDS011;30569;51.252;9.830;2023-05-20T05:34:27;11.90;;;8.57;;
44832;SDS011;30569;51.252;9.830;2023-05-20T05:36:53;9.68;;;7.35;;
44832;SDS011;30569;51.252;9.830;2023-05-20T05:39:18;9.10;;;6.32;;
44832;SDS011;30569;51.252;9.830;2023-05-20T05:41:44;10.07;;;7.00;;
44832;SDS011;30569;51.252;9.830;2023-05-20T05:44:09;12.77;;;7.78;;
44832;SDS011;30569;51.252;9.830;2023-05-20T05:46:35;11.25;;;7.10;;
44832;SDS011;30569;51.252;9.830;2023-05-20T05:49:01;11.60;;;8.07;;
44832;SDS011;30569;51.252;9.830;2023-05-20T05:51:27;11.90;;;7.65;;
44832;SDS011;30569;51.252;9.830;2023-05-20T05:53:53;11.90;;;7.60;;
44832;SDS011;30569;51.252;9.830;2023-05-20T05:56:19;10.70;;;7.50;;
44832;SDS011;30569;51.252;9.830;2023-05-20T05:58:45;12.20;;;8.73;;
44832;SDS011;30569;51.252;9.830;2023-05-20T06:01:12;11.65;;;7.60;;
44832;SDS011;30569;51.252;9.830;2023-05-20T06:03:38;11.13;;;7.63;;
44832;SDS011;30569;51.252;9.830;2023-05-20T06:06:03;14.20;;;8.10;;
44832;SDS011;30569;51.252;9.830;2023-05-20T06:08:29;16.55;;;7.93;;
44832;SDS011;30569;51.252;9.830;2023-05-20T06:10:54;12.45;;;8.10;;
44832;SDS011;30569;51.252;9.830;2023-05-20T06:13:20;11.13;;;7.30;;
44832;SDS011;30569;51.252;9.830;2023-05-20T06:15:47;10.65;;;7.38;;
44832;SDS011;30569;51.252;9.830;2023-05-20T06:18:13;10.85;;;7.72;;
44832;SDS011;30569;51.252;9.830;2023-05-20T06:20:39;11.43;;;7.50;;
44832;SDS011;30569;51.252;9.830;2023-05-20T06:23:05;10.45;;;7.28;;
44832;SDS011;30569;51.252;9.830;2023-05-20T06:25:30;12.23;;;7.90;;
44832;SDS011;30569;51.252;9.830;2023-05-20T06:27:56;13.38;;;7.78;;
44832;SDS011;30569;51.252;9.830;2023-05-20T06:30:21;14.90;;;8.27;;
44832;SDS011;30569;51.252;9.830;2023-05-20T06:32:47;10.68;;;7.72;;
44832;SDS011;30569;51.252;9.830;2023-05-20T06:35:12;13.38;;;8.05;;
44832;SDS011;30569;51.252;9.830;2023-05-20T06:37:38;11.65;;;8.48;;
44832;SDS011;30569;51.252;9.830;2023-05-20T06:40:04;14.05;;;8.60;;
44832;SDS011;30569;51.252;9.830;2023-05-20T06:42:30;13.30;;;8.00;;
44832;SDS011;30569;51.252;9.830;2023-05-20T06:44:55;12.30;;;8.23;;
44832;SDS011;30569;51.252;9.830;2023-05-20T06:47:21;13.50;;;8.77;;
44832;SDS011;30569;51.252;9.830;2023-05-20T06:49:46;11.55;;;8.63;;
44832;SDS011;30569;51.252;9.830;2023-05-20T06:52:12;13.00;;;8.35;;
44832;SDS011;30569;51.252;9.830;2023-05-20T06:54:37;14.05;;;9.35;;
44832;SDS011;30569;51.252;9.830;2023-05-20T06:57:08;11.45;;;7.72;;
44832;SDS011;30569;51.252;9.830;2023-05-20T06:59:35;10.55;;;7.47;;
44832;SDS011;30569;51.252;9.830;2023-05-20T07:02:01;11.80;;;7.97;;
44832;SDS011;30569;51.252;9.830;2023-05-20T07:04:27;11.63;;;7.85;;
44832;SDS011;30569;51.252;9.830;2023-05-20T07:06:52;12.68;;;7.85;;
44832;SDS011;30569;51.252;9.830;2023-05-20T07:09:18;12.05;;;8.50;;
44832;SDS011;30569;51.252;9.830;2023-05-20T07:11:44;14.82;;;8.32;;
44832;SDS011;30569;51.252;9.830;2023-05-20T07:14:09;12.63;;;8.32;;
44832;SDS011;30569;51.252;9.830;2023-05-20T07:16:35;11.02;;;7.32;;
44832;SDS011;30569;51.252;9.830;2023-05-20T07:19:01;12.80;;;8.77;;
44832;SDS011;30569;51.252;9.830;2023-05-20T07:21:27;11.82;;;8.32;;
44832;SDS011;30569;51.252;9.830;2023-05-20T07:23:53;13.23;;;9.02;;
44832;SDS011;30569;51.252;9.830;2023-05-20T07:26:19;12.93;;;8.77;;
44832;SDS011;30569;51.252;9.830;2023-05-20T07:28:45;14.57;;;9.10;;
44832;SDS011;30569;51.252;9.830;2023-05-20T07:31:11;13.88;;;8.65;;
44832;SDS011;30569;51.252;9.830;2023-05-20T07:33:37;13.05;;;8.30;;
44832;SDS011;30569;51.252;9.830;2023-05-20T07:36:03;11.52;;;9.00;;
44832;SDS011;30569;51.252;9.830;2023-05-20T07:38:29;13.68;;;8.35;;
44832;SDS011;30569;51.252;9.830;2023-05-20T07:40:56;14.07;;;8.30;;
44832;SDS011;30569;51.252;9.830;2023-05-20T07:43:22;15.55;;;8.82;;
44832;SDS011;30569;51.252;9.830;2023-05-20T07:45:48;13.85;;;8.32;;
44832;SDS011;30569;51.252;9.830;2023-05-20T07:48:14;13.30;;;8.23;;
44832;SDS011;30569;51.252;9.830;2023-05-20T07:50:40;14.23;;;8.32;;
44832;SDS011;30569;51.252;9.830;2023-05-20T07:53:06;12.27;;;8.10;;
44832;SDS011;30569;51.252;9.830;2023-05-20T07:55:33;13.43;;;8.20;;
44832;SDS011;30569;51.252;9.830;2023-05-20T07:58:00;14.35;;;8.73;;
44832;SDS011;30569;51.252;9.830;2023-05-20T08:00:26;15.25;;;8.20;;
44832;SDS011;30569;51.252;9.830;2023-05-20T08:02:52;11.60;;;8.48;;
44832;SDS011;30569;51.252;9.830;2023-05-20T08:05:17;12.57;;;9.05;;
44832;SDS011;30569;51.252;9.830;2023-05-20T08:07:43;14.73;;;8.98;;
44832;SDS011;30569;51.252;9.830;2023-05-20T08:10:09;12.23;;;8.90;;
44832;SDS011;30569;51.252;9.830;2023-05-20T08:12:35;12.77;;;8.90;;
44832;SDS011;30569;51.252;9.830;2023-05-20T08:15:01;14.20;;;8.90;;
44832;SDS011;30569;51.252;9.830;2023-05-20T08:17:27;14.02;;;9.68;;
44832;SDS011;30569;51.252;9.830;2023-05-20T08:19:53;13.43;;;8.82;;
44832;SDS011;30569;51.252;9.830;2023-05-20T08:22:19;13.50;;;8.70;;
44832;SDS011;30569;51.252;9.830;2023-05-20T08:24:45;13.38;;;9.60;;
44832;SDS011;30569;51.252;9.830;2023-05-20T08:27:11;14.18;;;8.48;;
44832;SDS011;30569;51.252;9.830;2023-05-20T08:29:37;12.23;;;8.95;;
44832;SDS011;30569;51.252;9.830;2023-05-20T08:32:03;17.85;;;9.43;;
44832;SDS011;30569;51.252;9.830;2023-05-20T08:34:29;15.85;;;9.40;;
44832;SDS011;30569;51.252;9.830;2023-05-20T08:36:54;15.85;;;9.55;;
44832;SDS011;30569;51.252;9.830;2023-05-20T08:39:21;13.20;;;9.07;;
44832;SDS011;30569;51.252;9.830;2023-05-20T08:41:47;15.45;;;9.05;;
44832;SDS011;30569;51.252;9.830;2023-05-20T08:44:13;16.55;;;10.25;;
44832;SDS011;30569;51.252;9.830;2023-05-20T08:46:38;12.70;;;9.30;;
44832;SDS011;30569;51.252;9.830;2023-05-20T08:49:05;11.82;;;8.98;;
44832;SDS011;30569;51.252;9.830;2023-05-20T08:51:31;14.68;;;9.07;;
44832;SDS011;30569;51.252;9.830;2023-05-20T08:54:00;12.05;;;8.20;;
44832;SDS011;30569;51.252;9.830;2023-05-20T08:56:26;11.70;;;8.85;;
44832;SDS011;30569;51.252;9.830;2023-05-20T08:58:52;11.68;;;8.10;;
44832;SDS011;30569;51.252;9.830;2023-05-20T09:01:18;14.65;;;9.25;;
44832;SDS011;30569;51.252;9.830;2023-05-20T09:03:47;12.05;;;8.15;;
44832;SDS011;30569;51.252;9.830;2023-05-20T09:06:15;11.27;;;8.45;;
44832;SDS011;30569;51.252;9.830;2023-05-20T09:08:41;13.30;;;9.00;;
44832;SDS011;30569;51.252;9.830;2023-05-20T09:11:08;12.90;;;8.00;;
44832;SDS011;30569;51.252;9.830;2023-05-20T09:13:34;12.43;;;8.40;;
44832;SDS011;30569;51.252;9.830;2023-05-20T09:16:00;11.30;;;7.97;;
44832;SDS011;30569;51.252;9.830;2023-05-20T09:18:26;11.15;;;8.10;;
44832;SDS011;30569;51.252;9.830;2023-05-20T09:20:53;11.45;;;8.50;;
44832;SDS011;30569;51.252;9.830;2023-05-20T09:23:19;12.00;;;7.82;;
44832;SDS011;30569;51.252;9.830;2023-05-20T09:25:50;11.68;;;7.93;;
44832;SDS011;30569;51.252;9.830;2023-05-20T09:28:22;10.65;;;7.75;;
44832;SDS011;30569;51.252;9.830;2023-05-20T09:30:49;12.18;;;7.55;;
44832;SDS011;30569;51.252;9.830;2023-05-20T09:33:17;10.95;;;7.50;;
44832;SDS011;30569;51.252;9.830;2023-05-20T09:35:43;14.20;;;7.63;;
44832;SDS011;30569;51.252;9.830;2023-05-20T09:38:09;10.95;;;7.05;;
44832;SDS011;30569;51.252;9.830;2023-05-20T09:40:36;12.13;;;7.03;;
44832;SDS011;30569;51.252;9.830;2023-05-20T09:43:02;12.20;;;7.20;;
44832;SDS011;30569;51.252;9.830;2023-05-20T09:45:29;12.75;;;7.53;;
44832;SDS011;30569;51.252;9.830;2023-05-20T09:47:55;8.73;;;6.63;;
44832;SDS011;30569;51.252;9.830;2023-05-20T09:50:22;9.85;;;7.10;;
44832;SDS011;30569;51.252;9.830;2023-05-20T09:52:49;11.13;;;7.20;;
44832;SDS011;30569;51.252;9.830;2023-05-20T09:55:20;11.20;;;7.53;;
44832;SDS011;30569;51.252;9.830;2023-05-20T09:57:46;10.55;;;7.28;;
44832;SDS011;30569;51.252;9.830;2023-05-20T10:00:12;10.50;;;7.32;;
44832;SDS011;30569;51.252;9.830;2023-05-20T10:02:45;12.40;;;7.63;;
44832;SDS011;30569;51.252;9.830;2023-05-20T10:05:18;11.75;;;7.43;;
44832;SDS011;30569;51.252;9.830;2023-05-20T10:08:09;9.95;;;6.97;;
44832;SDS011;30569;51.252;9.830;2023-05-20T10:13:47;11.95;;;7.75;;
44832;SDS011;30569;51.252;9.830;2023-05-20T10:19:28;12.07;;;8.30;;
44832;SDS011;30569;51.252;9.830;2023-05-20T10:22:03;11.30;;;7.88;;
44832;SDS011;30569;51.252;9.830;2023-05-20T10:27:07;18.10;;;10.27;;
44832;SDS011;30569;51.252;9.830;2023-05-20T10:29:41;12.65;;;8.80;;
44832;SDS011;30569;51.252;9.830;2023-05-20T10:32:26;13.25;;;7.80;;
44832;SDS011;30569;51.252;9.830;2023-05-20T10:35:03;10.90;;;7.38;;
44832;SDS011;30569;51.252;9.830;2023-05-20T10:37:38;13.70;;;7.40;;
44832;SDS011;30569;51.252;9.830;2023-05-20T10:40:10;11.32;;;8.40;;
44832;SDS011;30569;51.252;9.830;2023-05-20T10:42:37;13.63;;;7.82;;
44832;SDS011;30569;51.252;9.830;2023-05-20T10:45:03;11.15;;;7.35;;
44832;SDS011;30569;51.252;9.830;2023-05-20T10:47:30;13.02;;;8.20;;
44832;SDS011;30569;51.252;9.830;2023-05-20T10:49:56;12.10;;;7.88;;
44832;SDS011;30569;51.252;9.830;2023-05-20T10:52:23;11.40;;;8.20;;
44832;SDS011;30569;51.252;9.830;2023-05-20T10:57:18;12.80;;;8.23;;
44832;SDS011;30569;51.252;9.830;2023-05-20T10:59:44;13.70;;;8.80;;
44832;SDS011;30569;51.252;9.830;2023-05-20T11:02:11;12.88;;;8.30;;
44832;SDS011;30569;51.252;9.830;2023-05-20T11:04:43;12.70;;;8.38;;
44832;SDS011;30569;51.252;9.830;2023-05-20T11:07:09;12.82;;;8.20;;
44832;SDS011;30569;51.252;9.830;2023-05-20T11:09:35;13.88;;;8.43;;
44832;SDS011;30569;51.252;9.830;2023-05-20T11:12:01;12.85;;;8.20;;
44832;SDS011;30569;51.252;9.830;2023-05-20T11:14:27;11.73;;;8.40;;
44832;SDS011;30569;51.252;9.830;2023-05-20T11:16:57;14.35;;;8.05;;
44832;SDS011;30569;51.252;9.830;2023-05-20T11:19:23;12.10;;;8.00;;
44832;SDS011;30569;51.252;9.830;2023-05-20T11:21:50;15.18;;;7.90;;
44832;SDS011;30569;51.252;9.830;2023-05-20T11:24:23;11.63;;;7.68;;
44832;SDS011;30569;51.252;9.830;2023-05-20T11:26:50;10.60;;;7.53;;
44832;SDS011;30569;51.252;9.830;2023-05-20T11:29:16;13.75;;;7.90;;
44832;SDS011;30569;51.252;9.830;2023-05-20T11:31:44;12.55;;;7.75;;
44832;SDS011;30569;51.252;9.830;2023-05-20T11:34:10;14.38;;;8.57;;
44832;SDS011;30569;51.252;9.830;2023-05-20T11:36:40;13.40;;;8.90;;
44832;SDS011;30569;51.252;9.830;2023-05-20T11:39:06;13.02;;;8.70;;
44832;SDS011;30569;51.252;9.830;2023-05-20T11:41:35;10.20;;;7.22;;
44832;SDS011;30569;51.252;9.830;2023-05-20T11:44:02;12.13;;;7.05;;
44832;SDS011;30569;51.252;9.830;2023-05-20T11:46:29;15.82;;;10.40;;
44832;SDS011;30569;51.252;9.830;2023-05-20T11:48:55;13.70;;;8.30;;
44832;SDS011;30569;51.252;9.830;2023-05-20T11:51:28;10.90;;;7.20;;
44832;SDS011;30569;51.252;9.830;2023-05-20T11:53:58;11.80;;;7.27;;
44832;SDS011;30569;51.252;9.830;2023-05-20T11:56:27;11.20;;;7.25;;
44832;SDS011;30569;51.252;9.830;2023-05-20T11:58:53;11.98;;;7.78;;
44832;SDS011;30569;51.252;9.830;2023-05-20T12:01:22;10.95;;;6.70;;
44832;SDS011;30569;51.252;9.830;2023-05-20T12:03:48;11.57;;;7.13;;
44832;SDS011;30569;51.252;9.830;2023-05-20T12:06:13;10.30;;;7.32;;
44832;SDS011;30569;51.252;9.830;2023-05-20T12:08:41;10.43;;;7.18;;
44832;SDS011;30569;51.252;9.830;2023-05-20T12:11:07;12.10;;;7.57;;
44832;SDS011;30569;51.252;9.830;2023-05-20T12:13:33;11.85;;;7.82;;
44832;SDS011;30569;51.252;9.830;2023-05-20T12:15:59;12.35;;;7.15;;
44832;SDS011;30569;51.252;9.830;2023-05-20T12:18:25;13.10;;;7.85;;
44832;SDS011;30569;51.252;9.830;2023-05-20T12:20:50;12.32;;;7.38;;
44832;SDS011;30569;51.252;9.830;2023-05-20T12:23:16;11.98;;;7.40;;
44832;SDS011;30569;51.252;9.830;2023-05-20T12:25:41;12.93;;;7.43;;
44832;SDS011;30569;51.252;9.830;2023-05-20T12:28:09;10.50;;;6.97;;
44832;SDS011;30569;51.252;9.830;2023-05-20T12:30:35;14.35;;;8.18;;
44832;SDS011;30569;51.252;9.830;2023-05-20T12:33:01;11.40;;;7.68;;
44832;SDS011;30569;51.252;9.830;2023-05-20T12:35:40;12.27;;;8.00;;
44832;SDS011;30569;51.252;9.830;2023-05-20T12:38:06;12.38;;;7.10;;
44832;SDS011;30569;51.252;9.830;2023-05-20T12:40:33;12.73;;;7.93;;
44832;SDS011;30569;51.252;9.830;2023-05-20T12:42:59;12.68;;;7.88;;
44832;SDS011;30569;51.252;9.830;2023-05-20T12:45:25;10.05;;;7.13;;
44832;SDS011;30569;51.252;9.830;2023-05-20T12:47:51;12.05;;;6.95;;
44832;SDS011;30569;51.252;9.830;2023-05-20T12:50:18;12.35;;;7.03;;
44832;SDS011;30569;51.252;9.830;2023-05-20T12:52:44;12.05;;;7.70;;
44832;SDS011;30569;51.252;9.830;2023-05-20T12:55:11;11.10;;;7.18;;
44832;SDS011;30569;51.252;9.830;2023-05-20T12:57:40;10.40;;;7.13;;
44832;SDS011;30569;51.252;9.830;2023-05-20T13:00:09;12.68;;;7.45;;
44832;SDS011;30569;51.252;9.830;2023-05-20T13:02:36;11.05;;;7.70;;
44832;SDS011;30569;51.252;9.830;2023-05-20T13:05:03;13.40;;;7.97;;
44832;SDS011;30569;51.252;9.830;2023-05-20T13:07:29;14.05;;;7.45;;
44832;SDS011;30569;51.252;9.830;2023-05-20T13:09:56;11.65;;;6.70;;
44832;SDS011;30569;51.252;9.830;2023-05-20T13:12:22;13.38;;;6.88;;
44832;SDS011;30569;51.252;9.830;2023-05-20T13:14:48;11.88;;;7.20;;
44832;SDS011;30569;51.252;9.830;2023-05-20T13:17:14;10.80;;;6.68;;
44832;SDS011;30569;51.252;9.830;2023-05-20T13:19:40;11.35;;;7.38;;
44832;SDS011;30569;51.252;9.830;2023-05-20T13:22:06;10.75;;;7.30;;
44832;SDS011;30569;51.252;9.830;2023-05-20T13:24:33;11.48;;;7.18;;
44832;SDS011;30569;51.252;9.830;2023-05-20T13:26:59;12.52;;;8.32;;
44832;SDS011;30569;51.252;9.830;2023-05-20T13:29:25;13.63;;;7.95;;
44832;SDS011;30569;51.252;9.830;2023-05-20T13:31:51;12.38;;;8.57;;
44832;SDS011;30569;51.252;9.830;2023-05-20T13:34:17;13.40;;;8.73;;
44832;SDS011;30569;51.252;9.830;2023-05-20T13:36:43;12.07;;;8.15;;
44832;SDS011;30569;51.252;9.830;2023-05-20T13:39:11;11.48;;;8.43;;
44832;SDS011;30569;51.252;9.830;2023-05-20T13:41:37;13.15;;;9.18;;
44832;SDS011;30569;51.252;9.830;2023-05-20T13:44:03;10.98;;;7.60;;
44832;SDS011;30569;51.252;9.830;2023-05-20T13:46:29;12.93;;;8.55;;
44832;SDS011;30569;51.252;9.830;2023-05-20T13:48:55;13.07;;;7.90;;
44832;SDS011;30569;51.252;9.830;2023-05-20T13:51:21;11.80;;;8.02;;
44832;SDS011;30569;51.252;9.830;2023-05-20T13:53:47;12.00;;;8.07;;
44832;SDS011;30569;51.252;9.830;2023-05-20T13:56:13;15.35;;;10.57;;
44832;SDS011;30569;51.252;9.830;2023-05-20T13:58:38;12.93;;;8.43;;
44832;SDS011;30569;51.252;9.830;2023-05-20T14:01:05;12.63;;;7.85;;
44832;SDS011;30569;51.252;9.830;2023-05-20T14:03:31;20.40;;;12.57;;
44832;SDS011;30569;51.252;9.830;2023-05-20T14:05:58;14.27;;;8.50;;
44832;SDS011;30569;51.252;9.830;2023-05-20T14:08:24;14.45;;;9.43;;
44832;SDS011;30569;51.252;9.830;2023-05-20T14:10:50;14.65;;;8.93;;
44832;SDS011;30569;51.252;9.830;2023-05-20T14:13:19;12.90;;;7.93;;
44832;SDS011;30569;51.252;9.830;2023-05-20T14:15:45;18.65;;;9.32;;
44832;SDS011;30569;51.252;9.830;2023-05-20T14:18:11;13.35;;;8.88;;
44832;SDS011;30569;51.252;9.830;2023-05-20T14:20:37;16.08;;;9.13;;
44832;SDS011;30569;51.252;9.830;2023-05-20T14:23:03;13.18;;;9.77;;
44832;SDS011;30569;51.252;9.830;2023-05-20T14:25:29;14.95;;;9.95;;
44832;SDS011;30569;51.252;9.830;2023-05-20T14:27:55;19.67;;;9.68;;
44832;SDS011;30569;51.252;9.830;2023-05-20T14:30:21;14.85;;;9.35;;
44832;SDS011;30569;51.252;9.830;2023-05-20T14:32:47;13.80;;;9.30;;
44832;SDS011;30569;51.252;9.830;2023-05-20T14:35:14;15.52;;;10.02;;
44832;SDS011;30569;51.252;9.830;2023-05-20T14:37:40;13.38;;;9.10;;
44832;SDS011;30569;51.252;9.830;2023-05-20T14:40:06;15.15;;;10.45;;
44832;SDS011;30569;51.252;9.830;2023-05-20T14:42:32;14.27;;;9.80;;
44832;SDS011;30569;51.252;9.830;2023-05-20T14:44:58;14.32;;;9.73;;
44832;SDS011;30569;51.252;9.830;2023-05-20T14:47:24;16.60;;;10.15;;